sensor_id;sensor_type;location;lat;lon;timestamp;pressure;altitude;pressure_sealevel;temperature;humidity
22311;BME280;11323;49.610;11.016;2023-01-08T00:01:48;97693.44;;;14.38;nan
22311;BME280;11323;49.610;11.016;2023-01-08T00:06:49;97685.75;;;14.36;nan
22311;BME280;11323;49.610;11.016;2023-01-08T00:11:49;97665.94;;;14.33;nan
22311;BME280;11323;49.610;11.016;2023-01-08T00:16:49;97657.19;;;14.26;nan
22311;BME280;11323;49.610;11.016;2023-01-08T00:21:51;97666.50;;;14.29;nan
22311;BME280;11323;49.610;11.016;2023-01-08T00:26:51;97660.72;;;14.33;nan
22311;BME280;11323;49.610;11.016;2023-01-08T00:31:51;97659.81;;;14.26;nan
22311;BME280;11323;49.610;11.016;2023-01-08T00:36:52;97657.88;;;14.20;nan
22311;BME280;11323;49.610;11.016;2023-01-08T00:41:52;97651.66;;;14.21;nan
22311;BME280;11323;49.610;11.016;2023-01-08T00:46:53;97651.84;;;14.19;nan
22311;BME280;11323;49.610;11.016;2023-01-08T00:51:53;97661.78;;;14.24;nan
22311;BME280;11323;49.610;11.016;2023-01-08T00:56:54;97647.41;;;14.20;nan
22311;BME280;11323;49.610;11.016;2023-01-08T01:01:55;97650.50;;;14.24;nan
22311;BME280;11323;49.610;11.016;2023-01-08T01:06:55;97646.25;;;14.23;nan
22311;BME280;11323;49.610;11.016;2023-01-08T01:11:55;97623.72;;;14.13;nan
22311;BME280;11323;49.610;11.016;2023-01-08T01:16:56;97633.06;;;14.16;nan
22311;BME280;11323;49.610;11.016;2023-01-08T01:21:57;97633.41;;;14.13;nan
22311;BME280;11323;49.610;11.016;2023-01-08T01:26:58;97633.41;;;14.13;nan
22311;BME280;11323;49.610;11.016;2023-01-08T01:31:58;97635.38;;;14.11;nan
22311;BME280;11323;49.610;11.016;2023-01-08T01:36:59;97613.53;;;14.03;nan
22311;BME280;11323;49.610;11.016;2023-01-08T01:41:59;97610.44;;;14.00;nan
22311;BME280;11323;49.610;11.016;2023-01-08T01:47:10;97620.19;;;14.06;nan
22311;BME280;11323;49.610;11.016;2023-01-08T01:52:12;97625.97;;;14.01;nan
22311;BME280;11323;49.610;11.016;2023-01-08T01:57:12;97621.19;;;14.05;nan
22311;BME280;11323;49.610;11.016;2023-01-08T02:02:12;97607.94;;;14.07;nan
22311;BME280;11323;49.610;11.016;2023-01-08T02:07:48;97615.16;;;14.04;nan
22311;BME280;11323;49.610;11.016;2023-01-08T02:13:09;97594.53;;;14.01;nan
22311;BME280;11323;49.610;11.016;2023-01-08T02:18:24;97575.22;;;14.02;nan
22311;BME280;11323;49.610;11.016;2023-01-08T02:23:46;97587.66;;;14.00;nan
22311;BME280;11323;49.610;11.016;2023-01-08T02:28:54;97587.22;;;13.97;nan
22311;BME280;11323;49.610;11.016;2023-01-08T02:33:57;97587.03;;;13.98;nan
22311;BME280;11323;49.610;11.016;2023-01-08T02:44:20;97575.91;;;13.96;nan
22311;BME280;11323;49.610;11.016;2023-01-08T02:49:23;97581.16;;;13.96;nan
22311;BME280;11323;49.610;11.016;2023-01-08T02:54:31;97566.16;;;13.90;nan
22311;BME280;11323;49.610;11.016;2023-01-08T02:59:33;97572.69;;;13.94;nan
22311;BME280;11323;49.610;11.016;2023-01-08T03:04:38;97566.81;;;13.92;nan
22311;BME280;11323;49.610;11.016;2023-01-08T03:09:39;97575.66;;;13.91;nan
22311;BME280;11323;49.610;11.016;2023-01-08T03:14:45;97573.03;;;13.91;nan
22311;BME280;11323;49.610;11.016;2023-01-08T03:20:09;97570.59;;;13.89;nan
22311;BME280;11323;49.610;11.016;2023-01-08T03:25:12;97554.06;;;13.89;nan
22311;BME280;11323;49.610;11.016;2023-01-08T03:30:14;97552.78;;;13.85;nan
22311;BME280;11323;49.610;11.016;2023-01-08T03:35:19;97534.28;;;13.86;nan
22311;BME280;11323;49.610;11.016;2023-01-08T03:40:24;97523.97;;;13.85;nan
22311;BME280;11323;49.610;11.016;2023-01-08T03:45:28;97461.66;;;13.50;nan
22311;BME280;11323;49.610;11.016;2023-01-08T03:50:31;97501.69;;;13.74;nan
22311;BME280;11323;49.610;11.016;2023-01-08T03:55:31;97500.41;;;13.85;nan
22311;BME280;11323;49.610;11.016;2023-01-08T04:00:32;97485.88;;;13.82;nan
22311;BME280;11323;49.610;11.016;2023-01-08T04:05:32;97477.22;;;13.82;nan
22311;BME280;11323;49.610;11.016;2023-01-08T04:10:32;97470.06;;;13.75;nan
22311;BME280;11323;49.610;11.016;2023-01-08T04:15:33;97488.69;;;13.81;nan
22311;BME280;11323;49.610;11.016;2023-01-08T04:20:33;97478.56;;;13.78;nan
22311;BME280;11323;49.610;11.016;2023-01-08T04:25:34;97482.81;;;13.79;nan
22311;BME280;11323;49.610;11.016;2023-01-08T04:30:36;97482.16;;;13.77;nan
22311;BME280;11323;49.610;11.016;2023-01-08T04:35:36;97491.84;;;13.76;nan
22311;BME280;11323;49.610;11.016;2023-01-08T04:40:37;97490.56;;;13.72;nan
22311;BME280;11323;49.610;11.016;2023-01-08T04:45:37;97473.59;;;13.68;nan
22311;BME280;11323;49.610;11.016;2023-01-08T04:50:37;97482.63;;;13.65;nan
22311;BME280;11323;49.610;11.016;2023-01-08T04:55:38;97480.00;;;13.65;nan
22311;BME280;11323;49.610;11.016;2023-01-08T05:00:39;97474.75;;;13.65;nan
22311;BME280;11323;49.610;11.016;2023-01-08T05:05:39;97445.69;;;13.60;nan
22311;BME280;11323;49.610;11.016;2023-01-08T05:10:40;97392.69;;;13.28;nan
22311;BME280;11323;49.610;11.016;2023-01-08T05:15:40;97436.84;;;13.61;nan
22311;BME280;11323;49.610;11.016;2023-01-08T05:20:41;97437.31;;;13.65;nan
22311;BME280;11323;49.610;11.016;2023-01-08T05:25:41;97433.25;;;13.62;nan
22311;BME280;11323;49.610;11.016;2023-01-08T05:30:41;97438.47;;;13.62;nan
22311;BME280;11323;49.610;11.016;2023-01-08T05:35:42;97438.47;;;13.62;nan
22311;BME280;11323;49.610;11.016;2023-01-08T05:40:42;97433.50;;;13.52;nan
22311;BME280;11323;49.610;11.016;2023-01-08T05:45:43;97445.31;;;13.63;nan
22311;BME280;11323;49.610;11.016;2023-01-08T05:50:43;97446.34;;;13.62;nan
22311;BME280;11323;49.610;11.016;2023-01-08T05:55:43;97431.97;;;13.58;nan
22311;BME280;11323;49.610;11.016;2023-01-08T06:00:44;97435.59;;;13.57;nan
22311;BME280;11323;49.610;11.016;2023-01-08T06:05:44;97433.41;;;13.61;nan
22311;BME280;11323;49.610;11.016;2023-01-08T06:10:45;97419.88;;;13.57;nan
22311;BME280;11323;49.610;11.016;2023-01-08T06:15:45;97421.06;;;13.54;nan
22311;BME280;11323;49.610;11.016;2023-01-08T06:20:45;97414.63;;;13.57;nan
22311;BME280;11323;49.610;11.016;2023-01-08T06:25:53;97402.09;;;13.52;nan
22311;BME280;11323;49.610;11.016;2023-01-08T06:31:03;97406.50;;;13.52;nan
22311;BME280;11323;49.610;11.016;2023-01-08T06:36:04;97413.00;;;13.56;nan
22311;BME280;11323;49.610;11.016;2023-01-08T06:41:07;97430.78;;;13.61;nan
22311;BME280;11323;49.610;11.016;2023-01-08T06:46:08;97421.50;;;13.58;nan
22311;BME280;11323;49.610;11.016;2023-01-08T06:51:09;97417.88;;;13.59;nan
22311;BME280;11323;49.610;11.016;2023-01-08T06:56:10;97419.88;;;13.57;nan
22311;BME280;11323;49.610;11.016;2023-01-08T07:01:13;97425.47;;;13.54;nan
22311;BME280;11323;49.610;11.016;2023-01-08T07:06:15;97416.97;;;13.52;nan
22311;BME280;11323;49.610;11.016;2023-01-08T07:11:17;97419.78;;;13.50;nan
22311;BME280;11323;49.610;11.016;2023-01-08T07:16:17;97442.78;;;13.55;nan
22311;BME280;11323;49.610;11.016;2023-01-08T07:21:18;97432.31;;;13.55;nan
22311;BME280;11323;49.610;11.016;2023-01-08T07:26:20;97421.75;;;13.48;nan
22311;BME280;11323;49.610;11.016;2023-01-08T07:31:20;97424.31;;;13.56;nan
22311;BME280;11323;49.610;11.016;2023-01-08T07:36:21;97434.84;;;13.48;nan
22311;BME280;11323;49.610;11.016;2023-01-08T07:41:22;97431.59;;;13.46;nan
22311;BME280;11323;49.610;11.016;2023-01-08T07:46:22;97448.38;;;13.52;nan
22311;BME280;11323;49.610;11.016;2023-01-08T07:51:22;97436.22;;;13.59;nan
22311;BME280;11323;49.610;11.016;2023-01-08T07:56:23;97434.78;;;13.56;nan
22311;BME280;11323;49.610;11.016;2023-01-08T08:01:25;97449.66;;;13.56;nan
22311;BME280;11323;49.610;11.016;2023-01-08T08:06:25;97454.91;;;13.56;nan
22311;BME280;11323;49.610;11.016;2023-01-08T08:11:25;97456.25;;;13.52;nan
22311;BME280;11323;49.610;11.016;2023-01-08T08:16:26;97448.66;;;13.57;nan
22311;BME280;11323;49.610;11.016;2023-01-08T08:21:26;97449.31;;;13.59;nan
22311;BME280;11323;49.610;11.016;2023-01-08T08:26:28;97430.69;;;13.54;nan
22311;BME280;11323;49.610;11.016;2023-01-08T08:31:29;97430.78;;;13.61;nan
22311;BME280;11323;49.610;11.016;2023-01-08T08:36:29;97435.78;;;13.55;nan
22311;BME280;11323;49.610;11.016;2023-01-08T08:41:30;97434.84;;;13.63;nan
22311;BME280;11323;49.610;11.016;2023-01-08T08:46:30;97438.47;;;13.62;nan
22311;BME280;11323;49.610;11.016;2023-01-08T08:51:30;97416.25;;;13.58;nan
22311;BME280;11323;49.610;11.016;2023-01-08T08:56:31;97414.44;;;13.58;nan
22311;BME280;11323;49.610;11.016;2023-01-08T09:01:31;97439.63;;;13.59;nan
22311;BME280;11323;49.610;11.016;2023-01-08T09:06:32;97423.13;;;13.59;nan
22311;BME280;11323;49.610;11.016;2023-01-08T09:11:32;97414.53;;;13.65;nan
22311;BME280;11323;49.610;11.016;2023-01-08T09:16:32;97414.28;;;13.60;nan
22311;BME280;11323;49.610;11.016;2023-01-08T09:21:36;97406.44;;;13.60;nan
22311;BME280;11323;49.610;11.016;2023-01-08T09:26:36;97413.28;;;13.61;nan
22311;BME280;11323;49.610;11.016;2023-01-08T09:31:36;97406.03;;;13.63;nan
22311;BME280;11323;49.610;11.016;2023-01-08T09:36:37;97424.94;;;13.73;nan
22311;BME280;11323;49.610;11.016;2023-01-08T09:41:41;97411.00;;;13.73;nan
22311;BME280;11323;49.610;11.016;2023-01-08T09:46:43;97413.00;;;13.71;nan
22311;BME280;11323;49.610;11.016;2023-01-08T09:51:50;97417.53;;;13.77;nan
22311;BME280;11323;49.610;11.016;2023-01-08T09:56:51;97415.69;;;13.78;nan
22311;BME280;11323;49.610;11.016;2023-01-08T10:01:52;97401.97;;;13.75;nan
22311;BME280;11323;49.610;11.016;2023-01-08T10:06:59;97406.66;;;13.80;nan
22311;BME280;11323;49.610;11.016;2023-01-08T10:12:03;97396.09;;;13.13;nan
22311;BME280;11323;49.610;11.016;2023-01-08T10:17:16;97399.84;;;12.58;nan
22311;BME280;11323;49.610;11.016;2023-01-08T10:22:21;97389.31;;;12.19;nan
22311;BME280;11323;49.610;11.016;2023-01-08T10:27:22;97384.28;;;12.18;nan
22311;BME280;11323;49.610;11.016;2023-01-08T10:32:28;97388.09;;;12.07;nan
22311;BME280;11323;49.610;11.016;2023-01-08T10:37:40;97374.28;;;11.98;nan
22311;BME280;11323;49.610;11.016;2023-01-08T10:42:47;97368.03;;;12.31;nan
22311;BME280;11323;49.610;11.016;2023-01-08T10:47:51;97360.56;;;12.66;nan
22311;BME280;11323;49.610;11.016;2023-01-08T10:52:56;97362.84;;;12.84;nan
22311;BME280;11323;49.610;11.016;2023-01-08T10:58:00;97353.41;;;12.98;nan
22311;BME280;11323;49.610;11.016;2023-01-08T11:03:04;97351.06;;;13.03;nan
22311;BME280;11323;49.610;11.016;2023-01-08T11:08:25;97346.03;;;13.17;nan
22311;BME280;11323;49.610;11.016;2023-01-08T11:13:26;97343.56;;;13.30;nan
22311;BME280;11323;49.610;11.016;2023-01-08T11:18:27;97334.19;;;13.36;nan
22311;BME280;11323;49.610;11.016;2023-01-08T11:23:28;97328.78;;;13.37;nan
22311;BME280;11323;49.610;11.016;2023-01-08T11:28:47;97328.34;;;13.49;nan
22311;BME280;11323;49.610;11.016;2023-01-08T11:33:51;97326.38;;;13.51;nan
22311;BME280;11323;49.610;11.016;2023-01-08T11:38:56;97313.53;;;13.56;nan
22311;BME280;11323;49.610;11.016;2023-01-08T11:44:08;97315.78;;;13.59;nan
22311;BME280;11323;49.610;11.016;2023-01-08T11:49:29;97308.19;;;13.64;nan
22311;BME280;11323;49.610;11.016;2023-01-08T12:05:25;97284.56;;;13.79;nan
22311;BME280;11323;49.610;11.016;2023-01-08T12:10:52;97276.34;;;13.82;nan
22311;BME280;11323;49.610;11.016;2023-01-08T12:16:14;97268.91;;;13.86;nan
22311;BME280;11323;49.610;11.016;2023-01-08T12:21:20;97266.72;;;14.61;nan
22311;BME280;11323;49.610;11.016;2023-01-08T12:36:53;97254.56;;;14.25;nan
22311;BME280;11323;49.610;11.016;2023-01-08T12:42:12;97254.19;;;14.28;nan
22311;BME280;11323;49.610;11.016;2023-01-08T12:47:15;97241.69;;;14.30;nan
22311;BME280;11323;49.610;11.016;2023-01-08T12:52:23;97238.53;;;14.35;nan
22311;BME280;11323;49.610;11.016;2023-01-08T12:57:47;97216.63;;;14.21;nan
22311;BME280;11323;49.610;11.016;2023-01-08T13:03:03;97230.41;;;14.30;nan
22311;BME280;11323;49.610;11.016;2023-01-08T13:08:06;97236.59;;;14.22;nan
22311;BME280;11323;49.610;11.016;2023-01-08T13:13:24;97227.50;;;14.18;nan
22311;BME280;11323;49.610;11.016;2023-01-08T13:18:26;97232.75;;;14.18;nan
22311;BME280;11323;49.610;11.016;2023-01-08T13:23:28;97212.09;;;14.08;nan
22311;BME280;11323;49.610;11.016;2023-01-08T13:33:38;97208.13;;;14.19;nan
22311;BME280;11323;49.610;11.016;2023-01-08T13:38:41;97202.91;;;14.19;nan
22311;BME280;11323;49.610;11.016;2023-01-08T13:43:41;97162.13;;;14.10;nan
22311;BME280;11323;49.610;11.016;2023-01-08T13:54:05;97190.09;;;14.31;nan
22311;BME280;11323;49.610;11.016;2023-01-08T13:59:36;97185.28;;;14.34;nan
22311;BME280;11323;49.610;11.016;2023-01-08T14:04:37;97175.63;;;14.42;nan
22311;BME280;11323;49.610;11.016;2023-01-08T14:09:37;97166.81;;;14.49;nan
22311;BME280;11323;49.610;11.016;2023-01-08T14:14:38;97178.53;;;14.54;nan
22311;BME280;11323;49.610;11.016;2023-01-08T14:19:39;97171.88;;;14.51;nan
22311;BME280;11323;49.610;11.016;2023-01-08T14:24:42;97161.22;;;14.59;nan
22311;BME280;11323;49.610;11.016;2023-01-08T14:29:44;97171.88;;;14.51;nan
22311;BME280;11323;49.610;11.016;2023-01-08T14:34:46;97172.47;;;14.46;nan
22311;BME280;11323;49.610;11.016;2023-01-08T14:39:47;97177.06;;;14.44;nan
22311;BME280;11323;49.610;11.016;2023-01-08T14:45:17;97168.78;;;14.41;nan
22311;BME280;11323;49.610;11.016;2023-01-08T14:50:27;97162.53;;;14.42;nan
22311;BME280;11323;49.610;11.016;2023-01-08T14:55:29;97165.16;;;14.42;nan
22311;BME280;11323;49.610;11.016;2023-01-08T15:00:31;97149.41;;;14.42;nan
22311;BME280;11323;49.610;11.016;2023-01-08T15:05:31;97156.28;;;14.43;nan
22311;BME280;11323;49.610;11.016;2023-01-08T15:10:40;97163.97;;;14.44;nan
22311;BME280;11323;49.610;11.016;2023-01-08T15:15:52;97167.75;;;14.42;nan
22311;BME280;11323;49.610;11.016;2023-01-08T15:20:54;97158.53;;;14.46;nan
22311;BME280;11323;49.610;11.016;2023-01-08T15:25:55;97149.88;;;14.45;nan
22311;BME280;11323;49.610;11.016;2023-01-08T15:30:55;97162.16;;;14.45;nan
22311;BME280;11323;49.610;11.016;2023-01-08T15:35:57;97149.03;;;14.45;nan
22311;BME280;11323;49.610;11.016;2023-01-08T15:40:57;97134.09;;;14.39;nan
22311;BME280;11323;49.610;11.016;2023-01-08T15:45:58;97142.59;;;14.41;nan
22311;BME280;11323;49.610;11.016;2023-01-08T15:50:58;97135.72;;;14.40;nan
22311;BME280;11323;49.610;11.016;2023-01-08T15:55:59;97128.84;;;14.39;nan
22311;BME280;11323;49.610;11.016;2023-01-08T16:01:00;97125.81;;;14.42;nan
22311;BME280;11323;49.610;11.016;2023-01-08T16:06:05;97124.44;;;14.46;nan
22311;BME280;11323;49.610;11.016;2023-01-08T16:11:05;97111.97;;;14.48;nan
22311;BME280;11323;49.610;11.016;2023-01-08T16:16:10;97124.09;;;14.56;nan
22311;BME280;11323;49.610;11.016;2023-01-08T16:21:12;97105.16;;;14.60;nan
22311;BME280;11323;49.610;11.016;2023-01-08T16:26:14;97103.16;;;14.62;nan
22311;BME280;11323;49.610;11.016;2023-01-08T16:31:15;97090.63;;;14.64;nan
22311;BME280;11323;49.610;11.016;2023-01-08T16:36:15;97075.50;;;14.66;nan
22311;BME280;11323;49.610;11.016;2023-01-08T16:41:15;97079.13;;;14.65;nan
22311;BME280;11323;49.610;11.016;2023-01-08T16:46:16;97085.66;;;14.70;nan
22311;BME280;11323;49.610;11.016;2023-01-08T16:51:17;97076.53;;;14.65;nan
22311;BME280;11323;49.610;11.016;2023-01-08T16:56:17;97059.03;;;14.73;nan
22311;BME280;11323;49.610;11.016;2023-01-08T17:01:17;97062.84;;;14.70;nan
22311;BME280;11323;49.610;11.016;2023-01-08T17:06:18;97048.69;;;14.64;nan
22311;BME280;11323;49.610;11.016;2023-01-08T17:11:20;97035.38;;;14.59;nan
22311;BME280;11323;49.610;11.016;2023-01-08T17:16:21;97026.28;;;14.62;nan
22311;BME280;11323;49.610;11.016;2023-01-08T17:21:21;97023.88;;;14.60;nan
22311;BME280;11323;49.610;11.016;2023-01-08T17:26:22;97001.06;;;14.54;nan
22311;BME280;11323;49.610;11.016;2023-01-08T17:31:22;96994.81;;;14.55;nan
22311;BME280;11323;49.610;11.016;2023-01-08T17:36:24;96997.44;;;14.55;nan
22311;BME280;11323;49.610;11.016;2023-01-08T17:41:25;96994.81;;;14.55;nan
22311;BME280;11323;49.610;11.016;2023-01-08T17:46:43;96980.69;;;14.56;nan
22311;BME280;11323;49.610;11.016;2023-01-08T17:51:44;96973.84;;;14.55;nan
22311;BME280;11323;49.610;11.016;2023-01-08T17:56:45;96977.69;;;14.59;nan
22311;BME280;11323;49.610;11.016;2023-01-08T18:01:49;96972.44;;;14.59;nan
22311;BME280;11323;49.610;11.016;2023-01-08T18:06:50;96974.06;;;14.60;nan
22311;BME280;11323;49.610;11.016;2023-01-08T18:11:51;96965.19;;;14.61;nan
22311;BME280;11323;49.610;11.016;2023-01-08T18:16:51;96950.28;;;14.69;nan
22311;BME280;11323;49.610;11.016;2023-01-08T18:21:52;96946.28;;;14.73;nan
22311;BME280;11323;49.610;11.016;2023-01-08T18:26:54;96939.19;;;14.73;nan
22311;BME280;11323;49.610;11.016;2023-01-08T18:31:54;96940.81;;;14.74;nan
22311;BME280;11323;49.610;11.016;2023-01-08T18:36:54;96935.78;;;14.73;nan
22311;BME280;11323;49.610;11.016;2023-01-08T18:41:55;96938.59;;;14.78;nan
22311;BME280;11323;49.610;11.016;2023-01-08T18:47:13;96936.97;;;14.77;nan
22311;BME280;11323;49.610;11.016;2023-01-08T18:52:14;96937.41;;;14.74;nan
22311;BME280;11323;49.610;11.016;2023-01-08T18:57:15;96941.63;;;14.68;nan
22311;BME280;11323;49.610;11.016;2023-01-08T19:02:20;96934.78;;;14.67;nan
22311;BME280;11323;49.610;11.016;2023-01-08T19:07:21;96920.81;;;14.66;nan
22311;BME280;11323;49.610;11.016;2023-01-08T19:12:21;96910.16;;;14.68;nan
22311;BME280;11323;49.610;11.016;2023-01-08T19:17:29;96882.06;;;14.55;nan
22311;BME280;11323;49.610;11.016;2023-01-08T19:22:30;96882.31;;;14.67;nan
22311;BME280;11323;49.610;11.016;2023-01-08T19:27:33;96863.13;;;14.66;nan
22311;BME280;11323;49.610;11.016;2023-01-08T19:32:34;96857.88;;;14.66;nan
22311;BME280;11323;49.610;11.016;2023-01-08T19:37:34;96859.31;;;14.62;nan
22311;BME280;11323;49.610;11.016;2023-01-08T19:42:34;96848.19;;;14.54;nan
22311;BME280;11323;49.610;11.016;2023-01-08T19:47:54;96854.47;;;14.73;nan
22311;BME280;11323;49.610;11.016;2023-01-08T19:52:55;96841.97;;;14.75;nan
22311;BME280;11323;49.610;11.016;2023-01-08T19:57:56;96851.66;;;14.81;nan
22311;BME280;11323;49.610;11.016;2023-01-08T20:02:56;96837.53;;;14.69;nan
22311;BME280;11323;49.610;11.016;2023-01-08T20:07:57;96851.25;;;14.84;nan
22311;BME280;11323;49.610;11.016;2023-01-08T20:12:57;96851.84;;;14.86;nan
22311;BME280;11323;49.610;11.016;2023-01-08T20:17:57;96839.75;;;14.85;nan
22311;BME280;11323;49.610;11.016;2023-01-08T20:22:58;96840.53;;;14.86;nan
22311;BME280;11323;49.610;11.016;2023-01-08T20:27:58;96834.06;;;14.88;nan
22311;BME280;11323;49.610;11.016;2023-01-08T20:32:59;96819.97;;;14.82;nan
22311;BME280;11323;49.610;11.016;2023-01-08T20:37:59;96805.44;;;14.87;nan
22311;BME280;11323;49.610;11.016;2023-01-08T20:42:59;96779.81;;;14.89;nan
22311;BME280;11323;49.610;11.016;2023-01-08T20:48:00;96773.16;;;14.86;nan
22311;BME280;11323;49.610;11.016;2023-01-08T20:53:00;96770.53;;;14.86;nan
22311;BME280;11323;49.610;11.016;2023-01-08T20:58:01;96780.22;;;14.92;nan
22311;BME280;11323;49.610;11.016;2023-01-08T21:03:01;96771.13;;;14.88;nan
22311;BME280;11323;49.610;11.016;2023-01-08T21:08:02;96775.38;;;14.89;nan
22311;BME280;11323;49.610;11.016;2023-01-08T21:13:02;96776.38;;;14.88;nan
22311;BME280;11323;49.610;11.016;2023-01-08T21:18:03;96765.09;;;14.88;nan
22311;BME280;11323;49.610;11.016;2023-01-08T21:23:03;96751.78;;;14.82;nan
22311;BME280;11323;49.610;11.016;2023-01-08T21:28:03;96753.00;;;14.80;nan
22311;BME280;11323;49.610;11.016;2023-01-08T21:33:04;96750.78;;;14.70;nan
22311;BME280;11323;49.610;11.016;2023-01-08T21:38:04;96741.50;;;14.81;nan
22311;BME280;11323;49.610;11.016;2023-01-08T21:43:04;96733.03;;;14.79;nan
22311;BME280;11323;49.610;11.016;2023-01-08T21:48:23;96715.50;;;14.73;nan
22311;BME280;11323;49.610;11.016;2023-01-08T21:53:24;96716.50;;;14.72;nan
22311;BME280;11323;49.610;11.016;2023-01-08T21:58:30;96709.03;;;14.69;nan
22311;BME280;11323;49.610;11.016;2023-01-08T22:03:31;96695.72;;;14.63;nan
22311;BME280;11323;49.610;11.016;2023-01-08T22:08:32;96685.25;;;14.63;nan
22311;BME280;11323;49.610;11.016;2023-01-08T22:13:34;96684.03;;;14.59;nan
22311;BME280;11323;49.610;11.016;2023-01-08T22:18:36;96674.56;;;14.58;nan
22311;BME280;11323;49.610;11.016;2023-01-08T22:23:37;96671.72;;;14.53;nan
22311;BME280;11323;49.610;11.016;2023-01-08T22:28:38;96671.94;;;14.51;nan
22311;BME280;11323;49.610;11.016;2023-01-08T22:33:40;96661.88;;;14.48;nan
22311;BME280;11323;49.610;11.016;2023-01-08T22:38:40;96658.66;;;14.46;nan
22311;BME280;11323;49.610;11.016;2023-01-08T22:43:41;96642.75;;;14.34;nan
22311;BME280;11323;49.610;11.016;2023-01-08T22:48:42;96642.53;;;14.43;nan
22311;BME280;11323;49.610;11.016;2023-01-08T22:53:45;96640.91;;;14.42;nan
22311;BME280;11323;49.610;11.016;2023-01-08T22:58:46;96636.88;;;14.39;nan
22311;BME280;11323;49.610;11.016;2023-01-08T23:03:47;96634.47;;;14.38;nan
22311;BME280;11323;49.610;11.016;2023-01-08T23:08:48;96631.06;;;14.30;nan
22311;BME280;11323;49.610;11.016;2023-01-08T23:13:49;96616.16;;;14.24;nan
22311;BME280;11323;49.610;11.016;2023-01-08T23:18:53;96617.38;;;14.28;nan
22311;BME280;11323;49.610;11.016;2023-01-08T23:23:54;96616.38;;;14.29;nan
22311;BME280;11323;49.610;11.016;2023-01-08T23:28:56;96605.47;;;14.26;nan
22311;BME280;11323;49.610;11.016;2023-01-08T23:33:57;96600.66;;;14.23;nan
22311;BME280;11323;49.610;11.016;2023-01-08T23:38:58;96589.75;;;14.19;nan
22311;BME280;11323;49.610;11.016;2023-01-08T23:44:04;96604.28;;;14.21;nan
22311;BME280;11323;49.610;11.016;2023-01-08T23:49:05;96593.41;;;14.18;nan
22311;BME280;11323;49.610;11.016;2023-01-08T23:54:09;96590.19;;;14.16;nan
22311;BME280;11323;49.610;11.016;2023-01-08T23:59:10;96583.34;;;14.15;nan
